createdAt,value
2023-01-06T00:04:58.734Z,12.10
2023-01-06T00:10:00.535Z,10.40
2023-01-06T00:15:02.230Z,10.40
2023-01-06T00:20:04.596Z,11.80
2023-01-06T00:25:07.048Z,10.50
2023-01-06T00:30:09.547Z,10.50
2023-01-06T00:35:11.215Z,10.50
2023-01-06T00:40:12.901Z,10.40
2023-01-06T00:45:15.130Z,10.30
2023-01-06T00:50:16.961Z,10.40
2023-01-06T00:55:18.599Z,10.50
2023-01-06T01:00:21.179Z,10.50
2023-01-06T01:05:22.885Z,10.50
2023-01-06T01:10:24.557Z,11.90
2023-01-06T01:15:26.229Z,10.50
2023-01-06T01:20:27.880Z,10.60
2023-01-06T01:25:29.535Z,10.60
2023-01-06T01:30:31.215Z,12.30
2023-01-06T01:35:32.885Z,10.50
2023-01-06T01:40:34.522Z,10.50
2023-01-06T01:45:36.256Z,10.50
2023-01-06T01:50:42.865Z,10.40
2023-01-06T01:55:45.089Z,10.60
2023-01-06T02:00:47.003Z,10.50
2023-01-06T02:05:52.997Z,10.50
2023-01-06T02:10:54.968Z,10.50
2023-01-06T02:16:23.605Z,10.40
2023-01-06T02:21:48.233Z,10.40
2023-01-06T02:27:16.269Z,10.30
2023-01-06T02:32:36.312Z,10.30
2023-01-06T02:37:56.231Z,10.20
2023-01-06T02:43:10.094Z,10.10
2023-01-06T02:48:15.722Z,9.90
2023-01-06T02:53:35.891Z,10.00
2023-01-06T02:58:48.213Z,9.90
2023-01-06T03:03:51.552Z,9.90
2023-01-06T03:08:55.654Z,10.00
2023-01-06T03:14:03.524Z,10.00
2023-01-06T03:19:05.389Z,10.00
2023-01-06T03:24:09.380Z,10.00
2023-01-06T03:29:15.056Z,9.90
2023-01-06T03:34:29.661Z,10.70
2023-01-06T03:39:54.516Z,9.90
2023-01-06T03:45:35.424Z,9.90
2023-01-06T03:50:47.965Z,9.90
2023-01-06T03:55:57.992Z,9.60
2023-01-06T04:01:00.690Z,9.60
2023-01-06T04:06:02.530Z,9.50
2023-01-06T04:11:04.279Z,9.50
2023-01-06T04:16:06.364Z,7.20
2023-01-06T04:21:08.030Z,9.50
2023-01-06T04:26:09.715Z,9.40
2023-01-06T04:31:11.935Z,9.30
2023-01-06T04:36:14.552Z,9.20
2023-01-06T04:41:16.490Z,9.00
2023-01-06T04:46:18.165Z,9.10
2023-01-06T04:51:19.818Z,9.10
2023-01-06T04:56:21.539Z,9.30
2023-01-06T05:01:24.878Z,9.30
2023-01-06T05:06:26.573Z,10.20
2023-01-06T05:11:28.368Z,9.40
2023-01-06T05:16:34.540Z,9.40
2023-01-06T05:21:36.288Z,9.60
2023-01-06T05:26:37.973Z,9.60
2023-01-06T05:31:39.633Z,10.50
2023-01-06T05:36:41.390Z,10.30
2023-01-06T05:41:43.032Z,9.70
2023-01-06T05:46:44.660Z,9.60
2023-01-06T05:51:46.437Z,9.70
2023-01-06T05:56:48.339Z,9.60
2023-01-06T06:01:50.092Z,9.70
2023-01-06T06:06:51.804Z,9.60
2023-01-06T06:11:56.445Z,9.80
2023-01-06T06:16:58.492Z,9.90
2023-01-06T06:22:00.612Z,10.00
2023-01-06T06:27:02.314Z,10.60
2023-01-06T06:32:04.073Z,10.10
2023-01-06T06:37:05.795Z,10.20
2023-01-06T06:42:07.504Z,10.20
2023-01-06T06:47:09.251Z,10.10
2023-01-06T06:52:10.926Z,10.00
2023-01-06T06:57:12.595Z,10.10
2023-01-06T07:02:14.349Z,10.40
2023-01-06T07:07:16.053Z,10.30
2023-01-06T07:12:17.981Z,10.50
2023-01-06T07:17:19.637Z,10.40
2023-01-06T07:22:21.459Z,10.50
2023-01-06T07:27:23.108Z,11.00
2023-01-06T07:32:24.808Z,10.20
2023-01-06T07:37:26.665Z,10.10
2023-01-06T07:42:28.358Z,10.10
2023-01-06T07:47:30.058Z,10.20
2023-01-06T07:52:32.189Z,10.30
2023-01-06T07:57:34.118Z,10.20
2023-01-06T08:02:36.060Z,10.40
2023-01-06T08:07:37.895Z,10.30
2023-01-06T08:12:39.630Z,10.30
2023-01-06T08:17:41.927Z,11.00
2023-01-06T08:22:43.652Z,10.30
2023-01-06T08:27:45.469Z,10.10
2023-01-06T08:32:48.759Z,10.00
2023-01-06T08:37:50.451Z,9.90
2023-01-06T08:42:52.161Z,10.70
2023-01-06T08:47:54.555Z,9.80
2023-01-06T08:52:56.367Z,9.80
2023-01-06T08:57:58.038Z,10.00
2023-01-06T09:02:59.770Z,10.30
2023-01-06T09:08:01.550Z,10.40
2023-01-06T09:13:03.340Z,10.40
2023-01-06T09:18:05.114Z,10.50
2023-01-06T09:23:06.770Z,10.30
2023-01-06T09:28:10.399Z,10.60
2023-01-06T09:33:12.091Z,10.70
2023-01-06T09:38:14.596Z,10.60
2023-01-06T09:43:48.153Z,10.60
2023-01-06T09:49:21.931Z,10.50
2023-01-06T09:54:31.278Z,10.60
2023-01-06T09:59:45.244Z,10.80
2023-01-06T10:04:47.024Z,10.90
2023-01-06T10:10:10.283Z,10.70
2023-01-06T10:15:40.418Z,10.90
2023-01-06T10:21:07.503Z,10.70
2023-01-06T10:26:32.113Z,10.70
2023-01-06T10:31:37.155Z,10.80
2023-01-06T10:36:44.535Z,12.00
2023-01-06T10:42:21.182Z,11.70
2023-01-06T10:47:29.736Z,11.70
2023-01-06T10:52:32.853Z,12.20
2023-01-06T10:57:40.591Z,11.90
2023-01-06T11:02:50.854Z,12.70
2023-01-06T11:08:03.918Z,12.10
2023-01-06T11:13:17.921Z,11.80
2023-01-06T11:18:37.071Z,11.50
2023-01-06T11:23:41.487Z,11.50
2023-01-06T11:28:45.822Z,11.70
2023-01-06T11:33:54.071Z,11.60
2023-01-06T11:38:59.209Z,11.50
2023-01-06T11:44:12.767Z,11.50
2023-01-06T11:49:18.830Z,11.40
2023-01-06T11:54:35.921Z,11.10
2023-01-06T12:00:00.431Z,11.40
2023-01-06T12:05:05.898Z,11.20
2023-01-06T12:10:17.638Z,11.40
2023-01-06T12:15:19.763Z,11.20
2023-01-06T12:20:32.285Z,11.50
2023-01-06T12:25:46.073Z,11.20
2023-01-06T12:30:54.794Z,11.50
2023-01-06T12:36:02.906Z,11.30
2023-01-06T12:41:32.040Z,11.60
2023-01-06T12:46:46.294Z,11.70
2023-01-06T12:51:55.915Z,11.80
2023-01-06T12:57:10.972Z,11.80
2023-01-06T13:02:31.380Z,11.80
2023-01-06T13:08:02.537Z,11.70
2023-01-06T13:13:12.906Z,11.70
2023-01-06T13:18:30.079Z,11.80
2023-01-06T13:23:56.056Z,11.70
2023-01-06T13:29:22.723Z,11.60
2023-01-06T13:34:42.632Z,11.60
2023-01-06T13:39:49.536Z,11.70
2023-01-06T13:44:51.240Z,11.60
2023-01-06T13:49:53.437Z,11.70
2023-01-06T13:55:02.492Z,11.70
2023-01-06T14:00:04.125Z,12.60
2023-01-06T14:05:27.782Z,12.20
2023-01-06T14:10:36.779Z,11.80
2023-01-06T14:15:55.309Z,13.00
2023-01-06T14:21:26.528Z,12.40
2023-01-06T14:26:53.470Z,11.80
2023-01-06T14:31:55.124Z,11.70
2023-01-06T14:36:59.629Z,11.70
2023-01-06T14:42:05.011Z,11.50
2023-01-06T14:47:11.881Z,11.50
2023-01-06T14:52:18.347Z,11.50
2023-01-06T14:57:39.765Z,11.60
2023-01-06T15:02:46.576Z,11.50
2023-01-06T15:08:00.257Z,11.40
2023-01-06T15:13:02.738Z,11.40
2023-01-06T15:18:07.671Z,12.00
2023-01-06T15:23:15.722Z,11.30
2023-01-06T15:28:34.843Z,11.70
2023-01-06T15:33:40.791Z,11.20
2023-01-06T15:38:42.692Z,11.30
2023-01-06T15:43:46.658Z,11.90
2023-01-06T15:48:49.391Z,11.30
2023-01-06T15:53:57.389Z,11.20
2023-01-06T15:58:59.934Z,11.20
2023-01-06T16:04:04.453Z,11.20
2023-01-06T16:09:25.828Z,13.10
2023-01-06T16:14:27.479Z,11.20
2023-01-06T16:19:29.637Z,11.10
2023-01-06T16:24:31.444Z,11.10
2023-01-06T16:29:35.648Z,11.00
2023-01-06T16:34:37.395Z,11.00
2023-01-06T16:39:39.027Z,11.10
2023-01-06T16:44:40.672Z,11.30
2023-01-06T16:49:42.361Z,11.00
2023-01-06T16:54:44.943Z,11.30
2023-01-06T16:59:46.925Z,12.20
2023-01-06T17:04:48.652Z,10.80
2023-01-06T17:09:50.693Z,11.90
2023-01-06T17:14:52.353Z,10.70
2023-01-06T17:19:54.668Z,10.70
2023-01-06T17:25:00.893Z,10.70
2023-01-06T17:30:07.102Z,11.10
2023-01-06T17:35:26.937Z,10.20
2023-01-06T17:40:38.336Z,10.60
2023-01-06T17:45:40.472Z,10.50
2023-01-06T17:50:54.654Z,11.30
2023-01-06T17:55:56.959Z,10.50
2023-01-06T18:01:00.332Z,10.50
2023-01-06T18:06:37.931Z,10.50
2023-01-06T18:11:51.151Z,7.90
2023-01-06T18:16:54.863Z,10.40
2023-01-06T18:21:57.090Z,10.40
2023-01-06T18:27:01.711Z,10.40
2023-01-06T18:32:21.443Z,10.40
2023-01-06T18:37:29.145Z,10.30
2023-01-06T18:42:41.363Z,10.40
2023-01-06T18:47:44.290Z,10.40
2023-01-06T18:52:49.240Z,10.30
2023-01-06T18:58:02.319Z,10.30
2023-01-06T19:03:29.219Z,10.80
2023-01-06T19:08:34.636Z,10.30
2023-01-06T19:13:36.347Z,10.30
2023-01-06T19:18:38.875Z,10.30
2023-01-06T19:23:40.927Z,12.00
2023-01-06T19:28:43.424Z,10.20
2023-01-06T19:33:57.482Z,10.20
2023-01-06T19:39:02.610Z,10.30
2023-01-06T19:44:07.239Z,10.30
2023-01-06T19:49:19.628Z,10.30
2023-01-06T19:54:26.365Z,10.20
2023-01-06T19:59:35.885Z,10.10
2023-01-06T20:04:37.649Z,9.90
2023-01-06T20:09:41.143Z,10.10
2023-01-06T20:14:42.833Z,10.10
2023-01-06T20:19:44.605Z,10.10
2023-01-06T20:24:48.219Z,10.10
2023-01-06T20:29:50.089Z,10.10
2023-01-06T20:34:51.754Z,10.10
2023-01-06T20:39:53.373Z,10.10
2023-01-06T20:44:55.010Z,10.20
2023-01-06T20:49:56.826Z,9.30
2023-01-06T20:54:58.496Z,10.20
2023-01-06T21:00:00.285Z,10.20
2023-01-06T21:05:01.924Z,10.80
2023-01-06T21:10:04.435Z,10.10
2023-01-06T21:15:11.021Z,10.20
2023-01-06T21:20:12.724Z,10.10
2023-01-06T21:25:16.417Z,10.10
2023-01-06T21:30:18.277Z,11.40
2023-01-06T21:35:20.064Z,10.30
2023-01-06T21:40:21.729Z,10.20
2023-01-06T21:45:23.399Z,10.10
2023-01-06T21:50:26.907Z,9.90
2023-01-06T21:55:29.009Z,10.70
2023-01-06T22:00:30.781Z,10.00
2023-01-06T22:05:33.632Z,10.90
2023-01-06T22:10:39.764Z,10.00
2023-01-06T22:15:42.471Z,10.10
2023-01-06T22:20:44.829Z,9.90
2023-01-06T22:25:46.701Z,9.90
2023-01-06T22:30:48.518Z,9.90
2023-01-06T22:35:50.606Z,9.80
2023-01-06T22:40:52.470Z,9.90
2023-01-06T22:45:56.635Z,10.00
2023-01-06T22:50:59.875Z,9.90
2023-01-06T22:56:09.573Z,9.90
2023-01-06T23:01:11.780Z,9.90
2023-01-06T23:06:15.155Z,10.00
2023-01-06T23:11:18.806Z,9.90
2023-01-06T23:16:22.268Z,9.90
2023-01-06T23:21:25.417Z,9.90
2023-01-06T23:26:37.454Z,8.80
2023-01-06T23:31:42.075Z,9.90
2023-01-06T23:36:45.026Z,9.90
2023-01-06T23:41:46.948Z,10.00
2023-01-06T23:46:48.657Z,9.80
2023-01-06T23:51:50.340Z,9.80
2023-01-06T23:56:52.127Z,9.80
